Time;durP1;ratioP1;P1;durP2;ratioP2;P2;SDS_P1;SDS_P2;PMS_P1;PMS_P2;Temp;Humidity;BMP_temperature;BMP_pressure;BME280_temperature;BME280_humidity;BME280_pressure;Samples;Min_cycle;Max_cycle;Signal;HPM_P1;HPM_P2
2022/09/29 00:00:10;;;;;;;3.10;2.80;;;10.40;99.90;;;;;;4991060;28;20415;-65
2022/09/29 00:02:36;;;;;;;4.43;3.13;;;10.40;99.90;;;;;;4990002;28;20408;-65
2022/09/29 00:05:02;;;;;;;5.87;2.53;;;10.40;99.90;;;;;;4990329;28;20533;-66
2022/09/29 00:07:28;;;;;;;5.10;3.20;;;10.50;99.90;;;;;;4990473;28;20169;-65
2022/09/29 00:09:54;;;;;;;7.60;2.40;;;10.50;99.90;;;;;;4990791;28;20427;-65
2022/09/29 00:12:19;;;;;;;8.10;3.40;;;10.50;99.90;;;;;;4989452;28;20214;-65
2022/09/29 00:14:45;;;;;;;5.60;3.40;;;10.50;99.90;;;;;;4980931;28;20212;-65
2022/09/29 00:17:12;;;;;;;5.50;3.00;;;10.50;99.90;;;;;;4969380;28;20213;-66
2022/09/29 00:19:38;;;;;;;6.90;3.03;;;10.40;99.90;;;;;;4970014;28;20636;-65
2022/09/29 00:22:04;;;;;;;3.60;2.67;;;10.40;99.90;;;;;;4969423;28;20451;-66
2022/09/29 00:24:30;;;;;;;3.70;2.50;;;10.50;99.90;;;;;;4969553;28;20177;-65
2022/09/29 00:26:55;;;;;;;3.20;2.53;;;10.30;99.90;;;;;;4970050;28;20205;-65
2022/09/29 00:29:21;;;;;;;2.90;2.70;;;10.10;99.90;;;;;;4970571;28;20434;-66
2022/09/29 00:31:47;;;;;;;6.80;3.03;;;10.00;99.90;;;;;;4970187;28;20186;-66
2022/09/29 00:34:12;;;;;;;2.27;2.07;;;10.00;1.00;;;;;;4970868;28;20161;-66
2022/09/29 00:36:40;;;;;;;3.10;2.80;;;10.00;1.00;;;;;;4970827;28;20204;-66
2022/09/29 00:39:06;;;;;;;3.43;2.50;;;10.10;1.00;;;;;;4970786;28;20180;-66
2022/09/29 00:41:34;;;;;;;5.10;2.93;;;10.10;1.00;;;;;;4970373;28;20874;-66
2022/09/29 00:44:00;;;;;;;4.73;2.70;;;10.10;1.00;;;;;;4969956;28;20173;-66
2022/09/29 00:46:40;;;;;;;14.23;4.40;;;10.20;99.90;;;;;;4970825;28;20465;-66
2022/09/29 00:49:14;;;;;;;5.07;3.13;;;10.30;99.90;;;;;;4970229;28;20174;-66
2022/09/29 00:51:43;;;;;;;4.57;3.03;;;10.30;99.90;;;;;;4970589;28;20425;-66
2022/09/29 00:54:09;;;;;;;3.80;3.17;;;10.30;99.90;;;;;;4971097;28;20748;-65
2022/09/29 00:56:37;;;;;;;3.40;3.10;;;10.30;99.90;;;;;;4970979;28;20479;-66
2022/09/29 00:59:08;;;;;;;3.57;3.10;;;10.30;99.90;;;;;;4969894;28;20772;-66
2022/09/29 01:01:34;;;;;;;3.50;3.20;;;10.30;99.90;;;;;;4981956;28;20806;-66
2022/09/29 01:04:09;;;;;;;6.57;2.80;;;10.40;99.90;;;;;;4989944;28;20418;-66
2022/09/29 01:06:43;;;;;;;4.97;2.90;;;10.40;99.90;;;;;;4989755;28;20475;-65
2022/09/29 01:09:14;;;;;;;5.87;3.73;;;10.40;99.90;;;;;;4989873;28;20408;-66
2022/09/29 01:11:41;;;;;;;3.70;3.30;;;10.40;99.90;;;;;;4989093;28;20419;-66
2022/09/29 01:14:09;;;;;;;3.60;3.23;;;10.50;99.90;;;;;;4989285;28;20423;-66
2022/09/29 01:16:38;;;;;;;6.97;3.70;;;10.50;99.90;;;;;;4990195;28;20474;-66
2022/09/29 01:19:36;;;;;;;3.93;3.53;;;10.40;99.90;;;;;;4989581;28;20463;-65
2022/09/29 01:22:20;;;;;;;5.40;3.60;;;10.50;99.90;;;;;;4984712;28;20486;-66
2022/09/29 01:24:57;;;;;;;5.37;3.60;;;10.50;99.90;;;;;;4989487;28;20396;-66
2022/09/29 01:27:35;;;;;;;5.00;4.00;;;10.40;99.90;;;;;;4989287;28;20504;-66
2022/09/29 01:30:11;;;;;;;5.13;3.57;;;10.40;99.90;;;;;;4989821;28;20979;-66
2022/09/29 01:32:36;;;;;;;3.53;3.23;;;10.50;99.90;;;;;;4989414;28;20404;-66
2022/09/29 01:35:15;;;;;;;4.67;4.13;;;10.40;99.90;;;;;;4990387;28;20570;-65
2022/09/29 01:38:10;;;;;;;4.37;3.93;;;10.40;99.90;;;;;;4989723;28;20356;-66
2022/09/29 01:40:41;;;;;;;12.20;4.20;;;10.50;99.90;;;;;;4968259;28;20421;-65
2022/09/29 01:43:14;;;;;;;4.73;4.30;;;10.50;99.90;;;;;;4989242;28;20415;-66
2022/09/29 01:46:02;;;;;;;5.83;4.43;;;10.50;99.90;;;;;;4989946;28;20976;-66
2022/09/29 01:48:39;;;;;;;7.53;4.23;;;10.50;99.90;;;;;;4989613;28;20808;-66
2022/09/29 01:51:10;;;;;;;5.80;4.43;;;10.50;99.90;;;;;;4991475;28;20437;-66
2022/09/29 01:53:43;;;;;;;5.43;4.27;;;10.50;99.90;;;;;;4993122;28;20404;-66
2022/09/29 01:56:14;;;;;;;4.73;4.23;;;10.50;99.90;;;;;;4993265;28;20438;-66
2022/09/29 01:58:58;;;;;;;5.63;5.03;;;10.50;99.90;;;;;;4992868;28;20408;-66
2022/09/29 02:01:29;;;;;;;6.93;5.60;;;10.50;99.90;;;;;;4992433;28;20491;-66
2022/09/29 02:04:11;;;;;;;7.90;5.30;;;10.40;99.90;;;;;;4993094;28;20420;-66
2022/09/29 02:06:48;;;;;;;5.07;4.57;;;10.40;99.90;;;;;;4993045;28;20495;-65
2022/09/29 02:09:22;;;;;;;7.50;5.13;;;10.40;99.90;;;;;;4993131;28;20538;-66
2022/09/29 02:11:51;;;;;;;6.07;5.40;;;10.50;99.90;;;;;;4992414;28;20419;-66
2022/09/29 02:14:23;;;;;;;5.53;5.03;;;10.50;99.90;;;;;;4992390;28;20412;-66
2022/09/29 02:17:00;;;;;;;5.97;5.37;;;10.50;99.90;;;;;;4993016;28;20451;-66
2022/09/29 02:19:30;;;;;;;6.00;5.00;;;10.40;99.90;;;;;;4992780;28;20420;-66
2022/09/29 02:21:56;;;;;;;5.80;5.10;;;10.40;99.90;;;;;;4992045;28;20420;-66
2022/09/29 02:24:23;;;;;;;6.00;5.40;;;10.50;99.90;;;;;;4993053;28;20494;-66
2022/09/29 02:26:49;;;;;;;7.53;5.00;;;10.30;1.00;;;;;;4992711;28;20470;-66
2022/09/29 02:29:16;;;;;;;6.03;5.17;;;10.10;1.00;;;;;;4992561;28;20408;-65
2022/09/29 02:31:43;;;;;;;6.67;5.80;;;9.90;1.00;;;;;;4992304;28;20410;-65
2022/09/29 02:34:14;;;;;;;4.67;4.27;;;9.90;1.00;;;;;;4992538;28;20483;-66
2022/09/29 02:36:58;;;;;;;5.47;4.97;;;9.70;1.00;;;;;;4992865;28;20535;-65
2022/09/29 02:39:41;;;;;;;9.37;4.70;;;9.70;1.00;;;;;;4992940;28;20905;-66
2022/09/29 02:42:22;;;;;;;5.70;5.20;;;9.70;1.00;;;;;;4992155;28;20466;-66
2022/09/29 02:45:02;;;;;;;8.97;5.60;;;9.70;1.00;;;;;;4992815;28;20462;-65
2022/09/29 02:47:58;;;;;;;5.27;4.73;;;9.70;1.00;;;;;;4992588;28;20426;-66
2022/09/29 02:51:20;;;;;;;5.13;4.60;;;9.60;1.00;;;;;;4992217;28;20432;-66
2022/09/29 02:54:05;;;;;;;5.13;4.63;;;9.60;1.00;;;;;;4950992;29;20859;-66
2022/09/29 02:56:54;;;;;;;7.13;5.73;;;9.60;1.00;;;;;;4951110;28;20498;-65
2022/09/29 02:59:34;;;;;;;5.60;5.00;;;9.50;1.00;;;;;;4950492;29;20489;-65
2022/09/29 03:02:00;;;;;;;6.50;5.07;;;9.50;1.00;;;;;;4949802;28;20566;-66
2022/09/29 03:04:26;;;;;;;6.80;6.10;;;9.50;1.00;;;;;;4950924;29;20422;-66
2022/09/29 03:06:53;;;;;;;7.43;5.70;;;9.40;1.00;;;;;;4950624;28;20559;-65
2022/09/29 03:09:19;;;;;;;6.50;5.80;;;9.30;1.00;;;;;;4950962;29;20417;-66
2022/09/29 03:11:45;;;;;;;7.20;5.03;;;9.40;1.00;;;;;;4950089;29;20793;-66
2022/09/29 03:14:11;;;;;;;5.83;5.33;;;9.50;1.00;;;;;;4950381;29;20509;-66
2022/09/29 03:16:37;;;;;;;5.97;5.47;;;9.40;1.00;;;;;;4950571;28;20266;-66
2022/09/29 03:19:06;;;;;;;7.00;6.30;;;9.50;1.00;;;;;;4950541;29;20429;-66
2022/09/29 03:21:32;;;;;;;8.13;5.37;;;9.60;1.00;;;;;;4949791;29;20666;-66
2022/09/29 03:23:58;;;;;;;7.07;5.43;;;9.60;1.00;;;;;;4961099;28;20431;-66
2022/09/29 03:26:24;;;;;;;6.17;5.10;;;9.60;1.00;;;;;;4992359;28;20698;-66
2022/09/29 03:28:50;;;;;;;5.00;4.50;;;9.60;1.00;;;;;;4991117;28;20205;-66
2022/09/29 03:31:16;;;;;;;5.30;4.80;;;9.70;1.00;;;;;;4990869;28;20554;-66
2022/09/29 03:33:42;;;;;;;6.00;4.70;;;9.40;1.00;;;;;;4991437;28;20420;-66
2022/09/29 03:36:10;;;;;;;5.13;4.50;;;9.30;1.00;;;;;;4991283;28;20447;-66
2022/09/29 03:38:36;;;;;;;5.27;4.80;;;9.30;1.00;;;;;;4991079;28;20215;-66
2022/09/29 03:41:03;;;;;;;4.83;4.40;;;9.30;1.00;;;;;;4990770;28;20516;-66
2022/09/29 03:43:29;;;;;;;13.23;5.93;;;9.40;1.00;;;;;;4990726;28;20404;-66
2022/09/29 03:45:55;;;;;;;5.60;4.80;;;9.60;1.00;;;;;;4991330;28;20534;-66
2022/09/29 03:48:22;;;;;;;13.33;5.27;;;9.80;1.00;;;;;;4990943;28;20803;-66
2022/09/29 03:50:49;;;;;;;5.73;5.13;;;9.90;1.00;;;;;;4990350;28;20412;-66
2022/09/29 03:53:15;;;;;;;6.67;5.97;;;10.00;1.00;;;;;;4990809;28;20404;-66
2022/09/29 03:55:48;;;;;;;7.60;4.90;;;10.00;1.00;;;;;;4991373;28;20432;-66
2022/09/29 03:58:16;;;;;;;6.20;4.90;;;10.10;1.00;;;;;;4990663;28;20835;-66
2022/09/29 04:00:41;;;;;;;9.60;5.70;;;10.10;1.00;;;;;;4990518;28;20423;-64
2022/09/29 04:03:07;;;;;;;9.10;5.13;;;10.00;1.00;;;;;;4990066;28;20424;-64
2022/09/29 04:05:37;;;;;;;6.50;5.70;;;10.00;1.00;;;;;;4990814;28;20247;-65
2022/09/29 04:08:03;;;;;;;7.63;5.80;;;10.00;1.00;;;;;;4990604;28;20669;-65
2022/09/29 04:10:29;;;;;;;7.93;6.23;;;9.90;1.00;;;;;;4989334;28;20420;-65
2022/09/29 04:12:55;;;;;;;8.50;6.17;;;9.80;1.00;;;;;;4988659;28;20423;-64
2022/09/29 04:15:21;;;;;;;7.33;6.37;;;9.80;1.00;;;;;;4990733;28;20196;-64
2022/09/29 04:17:46;;;;;;;8.73;5.70;;;9.70;1.00;;;;;;4990353;28;20524;-64
2022/09/29 04:20:12;;;;;;;7.03;5.80;;;9.70;1.00;;;;;;4990077;28;20179;-65
2022/09/29 04:22:38;;;;;;;13.60;6.10;;;9.70;1.00;;;;;;4984135;28;20276;-65
2022/09/29 04:25:04;;;;;;;6.83;5.83;;;9.60;1.00;;;;;;4988678;28;20625;-65
2022/09/29 04:27:30;;;;;;;9.00;5.90;;;9.60;1.00;;;;;;4991396;28;20502;-64
2022/09/29 04:29:55;;;;;;;6.50;5.80;;;9.70;1.00;;;;;;4988873;28;20434;-65
2022/09/29 04:32:23;;;;;;;6.23;5.63;;;9.70;1.00;;;;;;4988166;28;20645;-64
2022/09/29 04:34:49;;;;;;;6.67;5.43;;;9.70;1.00;;;;;;4989343;28;20228;-65
2022/09/29 04:37:15;;;;;;;8.33;6.10;;;9.60;1.00;;;;;;4988910;28;20479;-65
2022/09/29 04:39:40;;;;;;;13.10;6.23;;;9.70;1.00;;;;;;4989892;28;20284;-66
2022/09/29 04:42:06;;;;;;;7.43;5.40;;;9.70;1.00;;;;;;4988414;28;20524;-66
2022/09/29 04:44:32;;;;;;;7.90;7.10;;;9.70;1.00;;;;;;4988515;28;20709;-66
2022/09/29 04:46:58;;;;;;;8.30;5.93;;;9.70;1.00;;;;;;4988740;28;20550;-66
2022/09/29 04:49:23;;;;;;;7.93;7.13;;;9.70;1.00;;;;;;4989480;28;20173;-66
2022/09/29 04:51:49;;;;;;;7.00;6.27;;;9.80;1.00;;;;;;4987466;28;20181;-65
2022/09/29 04:54:16;;;;;;;7.70;6.50;;;9.80;1.00;;;;;;4986927;28;20180;-65
2022/09/29 04:56:41;;;;;;;6.87;6.17;;;10.00;1.00;;;;;;4987061;28;20296;-65
2022/09/29 04:59:08;;;;;;;8.20;6.57;;;10.00;1.00;;;;;;4986518;28;20487;-65
2022/09/29 05:01:34;;;;;;;7.43;6.43;;;10.00;1.00;;;;;;4986454;28;20650;-65
2022/09/29 05:04:00;;;;;;;8.00;7.30;;;10.10;1.00;;;;;;4986403;28;20519;-66
2022/09/29 05:06:26;;;;;;;9.30;6.50;;;10.00;1.00;;;;;;4987280;28;20248;-67
2022/09/29 05:08:52;;;;;;;16.67;7.33;;;10.00;1.00;;;;;;4987308;28;20422;-68
2022/09/29 05:11:18;;;;;;;10.23;7.43;;;10.00;1.00;;;;;;4986660;28;20535;-67
2022/09/29 05:13:47;;;;;;;11.93;7.30;;;10.10;1.00;;;;;;4986871;28;20181;-68
2022/09/29 05:16:12;;;;;;;6.83;6.13;;;10.10;1.00;;;;;;4986839;28;20677;-67
2022/09/29 05:18:38;;;;;;;7.07;6.40;;;10.10;1.00;;;;;;4987027;28;20424;-66
2022/09/29 05:21:05;;;;;;;16.20;7.43;;;10.10;1.00;;;;;;4986106;28;20191;-69
2022/09/29 05:23:31;;;;;;;10.93;5.93;;;10.10;1.00;;;;;;4987405;28;20212;-69
2022/09/29 05:26:05;;;;;;;9.60;6.60;;;10.20;1.00;;;;;;4990916;28;20639;-69
2022/09/29 05:28:34;;;;;;;7.50;6.80;;;10.20;1.00;;;;;;4990244;28;20177;-69
2022/09/29 05:31:05;;;;;;;10.13;6.97;;;10.10;1.00;;;;;;4990232;28;20431;-68
2022/09/29 05:33:31;;;;;;;11.07;6.27;;;10.20;1.00;;;;;;5004458;28;20420;-66
2022/09/29 05:35:57;;;;;;;9.17;6.90;;;10.20;1.00;;;;;;4991489;28;20915;-67
2022/09/29 05:38:23;;;;;;;16.60;7.53;;;10.20;1.00;;;;;;4991837;28;20455;-68
2022/09/29 05:40:50;;;;;;;11.63;6.90;;;10.20;1.00;;;;;;4989327;28;20197;-69
2022/09/29 05:43:16;;;;;;;19.60;8.37;;;10.10;1.00;;;;;;4991882;28;20416;-68
2022/09/29 05:45:41;;;;;;;22.20;8.07;;;10.20;1.00;;;;;;4992960;28;20473;-69
2022/09/29 05:48:07;;;;;;;23.40;9.53;;;10.20;1.00;;;;;;4987240;28;20177;-67
2022/09/29 05:50:43;;;;;;;11.70;8.40;;;10.30;1.00;;;;;;4990781;28;20177;-67
2022/09/29 05:53:11;;;;;;;17.80;10.50;;;10.20;1.00;;;;;;4991014;28;20486;-67
2022/09/29 05:55:41;;;;;;;15.27;7.97;;;10.20;1.00;;;;;;4990987;28;20526;-65
2022/09/29 05:58:07;;;;;;;10.50;8.07;;;10.00;1.00;;;;;;4990147;28;20509;-68
2022/09/29 06:00:33;;;;;;;10.03;8.80;;;10.10;1.00;;;;;;4989824;28;20791;-70
2022/09/29 06:03:00;;;;;;;9.07;7.43;;;10.10;1.00;;;;;;4988551;28;20984;-68
2022/09/29 06:05:26;;;;;;;8.00;6.90;;;10.10;1.00;;;;;;4991136;28;20471;-69
2022/09/29 06:07:53;;;;;;;13.90;7.20;;;10.00;1.00;;;;;;4989458;28;20455;-66
2022/09/29 06:10:19;;;;;;;8.77;7.87;;;9.80;1.00;;;;;;4989893;28;20508;-68
2022/09/29 06:12:44;;;;;;;12.37;8.07;;;9.60;1.00;;;;;;4988995;28;20407;-68
2022/09/29 06:15:11;;;;;;;10.37;8.00;;;9.60;1.00;;;;;;4990057;28;20494;-67
2022/09/29 06:17:37;;;;;;;10.30;7.40;;;9.50;1.00;;;;;;4989644;28;20188;-67
2022/09/29 06:20:05;;;;;;;10.47;8.87;;;9.50;1.00;;;;;;4990198;28;20802;-67
2022/09/29 06:22:31;;;;;;;10.40;8.10;;;9.40;1.00;;;;;;4988688;28;20434;-68
2022/09/29 06:24:58;;;;;;;10.70;9.60;;;9.50;1.00;;;;;;4990249;28;20522;-69
2022/09/29 06:27:24;;;;;;;10.00;9.00;;;9.70;1.00;;;;;;4990780;28;20245;-68
2022/09/29 06:29:50;;;;;;;10.10;8.60;;;9.80;1.00;;;;;;4991442;28;20416;-69
2022/09/29 06:32:15;;;;;;;14.20;10.30;;;9.90;1.00;;;;;;4991555;28;20431;-68
2022/09/29 06:37:35;;;;;;;10.97;9.87;;;10.10;1.00;;;;;;4991662;28;20240;-67
2022/09/29 06:40:06;;;;;;;14.50;10.13;;;10.20;1.00;;;;;;4992191;28;20407;-68
2022/09/29 06:42:32;;;;;;;9.53;8.53;;;10.30;1.00;;;;;;4991082;28;20790;-67
2022/09/29 06:44:58;;;;;;;9.20;8.20;;;10.30;1.00;;;;;;4992245;28;20515;-68
2022/09/29 06:47:24;;;;;;;9.57;8.50;;;10.20;1.00;;;;;;4992187;28;20256;-68
2022/09/29 06:49:50;;;;;;;9.87;8.00;;;10.10;1.00;;;;;;4992263;28;20177;-68
2022/09/29 06:52:16;;;;;;;9.90;8.80;;;9.90;1.00;;;;;;4991650;28;20455;-69
2022/09/29 06:54:42;;;;;;;12.03;7.80;;;9.70;1.00;;;;;;4992609;28;20177;-67
2022/09/29 06:57:08;;;;;;;10.40;9.27;;;9.70;1.00;;;;;;4992365;28;20819;-67
2022/09/29 06:59:34;;;;;;;13.57;9.17;;;9.60;1.00;;;;;;4991979;28;20169;-68
2022/09/29 07:01:59;;;;;;;30.87;10.53;;;9.70;1.00;;;;;;4991131;28;20477;-68
2022/09/29 07:04:25;;;;;;;9.73;8.73;;;9.80;1.00;;;;;;4991760;28;20230;-67
2022/09/29 07:06:51;;;;;;;11.47;8.90;;;9.80;1.00;;;;;;4990123;28;20232;-66
2022/09/29 07:09:17;;;;;;;10.30;8.93;;;9.80;1.00;;;;;;4991622;28;20173;-67
2022/09/29 07:11:45;;;;;;;11.80;9.30;;;9.60;1.00;;;;;;4990932;28;20565;-69
2022/09/29 07:14:22;;;;;;;17.10;10.30;;;9.70;1.00;;;;;;4991556;28;20587;-65
2022/09/29 07:16:48;;;;;;;15.50;9.77;;;9.80;1.00;;;;;;4991417;28;20443;-66
2022/09/29 07:19:16;;;;;;;11.10;9.33;;;9.80;1.00;;;;;;4991407;28;20423;-68
2022/09/29 07:21:42;;;;;;;17.10;10.10;;;9.80;1.00;;;;;;4991322;28;20412;-67
2022/09/29 07:24:08;;;;;;;10.60;9.03;;;9.80;1.00;;;;;;4991512;28;20503;-67
2022/09/29 07:26:34;;;;;;;12.53;11.20;;;9.90;1.00;;;;;;4991938;28;20850;-68
2022/09/29 07:29:00;;;;;;;13.13;11.37;;;10.00;1.00;;;;;;4991325;28;20173;-65
2022/09/29 07:31:26;;;;;;;14.73;10.33;;;10.00;1.00;;;;;;4991186;28;20408;-67
2022/09/29 07:33:52;;;;;;;22.03;10.23;;;10.10;1.00;;;;;;4991368;28;20176;-67
2022/09/29 07:36:19;;;;;;;11.87;9.50;;;10.20;1.00;;;;;;4991962;28;20432;-67
2022/09/29 07:38:50;;;;;;;12.00;10.87;;;10.20;1.00;;;;;;4992891;28;20543;-67
2022/09/29 07:41:18;;;;;;;11.17;9.20;;;10.10;1.00;;;;;;4992812;28;20827;-67
2022/09/29 07:43:44;;;;;;;11.80;10.00;;;10.10;1.00;;;;;;4992632;28;20475;-68
2022/09/29 07:46:10;;;;;;;12.33;10.30;;;10.10;1.00;;;;;;4992265;28;20538;-67
2022/09/29 07:48:37;;;;;;;13.23;11.20;;;10.00;1.00;;;;;;4991308;28;20455;-67
2022/09/29 07:51:06;;;;;;;12.07;10.77;;;10.10;1.00;;;;;;4990711;28;20180;-66
2022/09/29 07:53:33;;;;;;;20.43;11.43;;;10.10;1.00;;;;;;4991303;28;20412;-67
2022/09/29 07:56:08;;;;;;;15.50;10.90;;;10.30;1.00;;;;;;4991307;28;20428;-67
2022/09/29 07:58:34;;;;;;;18.67;11.37;;;10.40;1.00;;;;;;4990895;28;20423;-66
2022/09/29 08:01:04;;;;;;;18.70;11.80;;;10.50;1.00;;;;;;4990735;28;20980;-67
2022/09/29 08:03:29;;;;;;;17.83;13.67;;;10.60;1.00;;;;;;4990645;28;20430;-66
2022/09/29 08:05:56;;;;;;;19.47;13.40;;;10.50;1.00;;;;;;4990596;28;20976;-67
2022/09/29 08:08:22;;;;;;;17.07;13.90;;;10.30;1.00;;;;;;4990437;28;20183;-66
2022/09/29 08:10:48;;;;;;;18.10;14.43;;;10.40;1.00;;;;;;4990525;28;20494;-67
2022/09/29 08:13:13;;;;;;;17.97;14.27;;;10.50;1.00;;;;;;4990631;28;20161;-67
2022/09/29 08:15:39;;;;;;;18.40;14.43;;;10.70;1.00;;;;;;4991053;28;20200;-67
2022/09/29 08:18:04;;;;;;;19.43;13.93;;;10.80;1.00;;;;;;4990845;28;20236;-66
2022/09/29 08:20:30;;;;;;;22.00;17.20;;;10.90;1.00;;;;;;4990269;28;20169;-66
2022/09/29 08:22:57;;;;;;;25.80;19.97;;;11.00;1.00;;;;;;4990683;28;20177;-67
2022/09/29 08:25:24;;;;;;;29.93;19.30;;;10.80;1.00;;;;;;4990240;28;20248;-66
2022/09/29 08:27:50;;;;;;;41.50;18.50;;;11.00;1.00;;;;;;4990271;28;20415;-68
2022/09/29 08:30:16;;;;;;;28.93;19.77;;;10.80;1.00;;;;;;4990726;28;20917;-65
2022/09/29 08:32:42;;;;;;;52.23;19.43;;;10.90;1.00;;;;;;4990449;28;20444;-67
2022/09/29 08:35:08;;;;;;;32.60;20.10;;;10.90;1.00;;;;;;4990825;28;20677;-68
2022/09/29 08:37:34;;;;;;;27.97;21.10;;;10.90;1.00;;;;;;4990203;28;20231;-65
2022/09/29 08:40:00;;;;;;;29.43;22.90;;;10.80;1.00;;;;;;4989993;28;20958;-66
2022/09/29 08:42:25;;;;;;;32.47;23.50;;;10.90;1.00;;;;;;4989211;28;20193;-66
2022/09/29 08:44:57;;;;;;;30.07;24.63;;;10.90;1.00;;;;;;4990306;28;20192;-65
2022/09/29 08:47:34;;;;;;;24.93;17.73;;;11.00;1.00;;;;;;4989967;28;20225;-66
2022/09/29 08:50:25;;;;;;;22.57;16.30;;;11.10;99.90;;;;;;4990868;28;20760;-64
2022/09/29 08:52:56;;;;;;;30.47;21.43;;;11.00;99.90;;;;;;4989890;28;20920;-66
2022/09/29 08:55:45;;;;;;;32.10;22.20;;;11.00;99.90;;;;;;4989945;28;20416;-65
2022/09/29 08:58:13;;;;;;;23.63;18.60;;;10.90;99.90;;;;;;4989719;28;20471;-65
2022/09/29 09:00:57;;;;;;;21.20;16.67;;;10.90;1.00;;;;;;4989425;28;20458;-65
2022/09/29 09:03:31;;;;;;;35.40;19.80;;;10.90;1.00;;;;;;4990204;28;20466;-65
2022/09/29 09:06:28;;;;;;;22.10;19.70;;;10.90;99.90;;;;;;4990110;28;21444;-65
2022/09/29 09:09:15;;;;;;;19.00;15.13;;;11.10;99.90;;;;;;4990142;28;20437;-65
2022/09/29 09:12:09;;;;;;;30.30;22.90;;;11.10;99.90;;;;;;4989643;28;20400;-67
2022/09/29 09:14:57;;;;;;;34.93;26.30;;;11.10;99.90;;;;;;4989930;28;20440;-68
2022/09/29 09:17:59;;;;;;;28.03;22.23;;;11.20;99.90;;;;;;4990187;28;20820;-67
2022/09/29 09:20:31;;;;;;;27.67;24.63;;;11.30;99.90;;;;;;4989779;28;20498;-70
2022/09/29 09:22:59;;;;;;;21.13;17.30;;;11.30;99.90;;;;;;4989759;28;20436;-68
2022/09/29 09:25:28;;;;;;;17.30;15.30;;;11.30;99.90;;;;;;4989657;28;20452;-68
2022/09/29 09:28:17;;;;;;;16.53;11.90;;;11.40;99.90;;;;;;4989210;28;20507;-68
2022/09/29 09:30:53;;;;;;;13.00;10.90;;;11.30;99.90;;;;;;4985450;28;20470;-68
2022/09/29 09:33:34;;;;;;;26.37;11.90;;;11.20;99.90;;;;;;4987054;28;20423;-66
2022/09/29 09:36:11;;;;;;;20.63;11.00;;;11.50;99.90;;;;;;4990206;28;20453;-68
2022/09/29 09:38:52;;;;;;;11.87;10.50;;;11.40;99.90;;;;;;4989746;28;20885;-67
2022/09/29 09:41:22;;;;;;;14.37;9.80;;;11.30;1.00;;;;;;4987685;28;20427;-68
2022/09/29 09:44:16;;;;;;;14.90;6.63;;;11.40;1.00;;;;;;4985343;28;20925;-67
2022/09/29 09:46:49;;;;;;;14.27;7.07;;;12.20;1.00;;;;;;4984669;28;20463;-68
2022/09/29 09:49:34;;;;;;;21.13;8.30;;;13.10;1.00;;;;;;4990044;28;20463;-68
2022/09/29 09:52:08;;;;;;;14.63;8.13;;;13.80;99.90;;;;;;4989231;28;20415;-67
2022/09/29 09:54:41;;;;;;;10.50;9.40;;;13.70;1.00;;;;;;4988351;28;20426;-67
2022/09/29 09:57:26;;;;;;;215.00;31.83;;;13.60;65.10;;;;;;4987495;28;20443;-67
2022/09/29 09:59:54;;;;;;;41.13;8.73;;;13.80;99.90;;;;;;4989459;28;20428;-67
2022/09/29 10:02:21;;;;;;;18.37;9.50;;;13.90;99.90;;;;;;4988392;28;20462;-66
2022/09/29 10:04:56;;;;;;;24.27;9.70;;;13.10;1.00;;;;;;4989520;28;20572;-67
2022/09/29 10:07:26;;;;;;;18.43;11.43;;;13.40;1.00;;;;;;4981504;28;20404;-68
2022/09/29 10:09:52;;;;;;;18.10;9.37;;;13.00;1.00;;;;;;4990572;28;20447;-67
2022/09/29 10:12:19;;;;;;;14.03;10.17;;;12.80;99.90;;;;;;4989839;28;20777;-66
2022/09/29 10:15:32;;;;;;;20.07;10.20;;;12.40;1.00;;;;;;4992706;28;20169;-67
2022/09/29 10:18:09;;;;;;;9.93;8.93;;;12.50;99.90;;;;;;4961871;28;20885;-67
2022/09/29 10:20:37;;;;;;;11.53;8.57;;;12.40;1.00;;;;;;4992212;28;20495;-67
2022/09/29 10:23:28;;;;;;;10.07;8.87;;;12.40;99.90;;;;;;4991229;28;20478;-67
2022/09/29 10:26:16;;;;;;;8.87;7.80;;;12.60;99.90;;;;;;4992022;28;20545;-66
2022/09/29 10:28:41;;;;;;;11.47;8.53;;;12.70;1.00;;;;;;4992670;28;20813;-67
2022/09/29 10:31:20;;;;;;;60.23;12.23;;;12.80;99.90;;;;;;4992565;28;20471;-68
2022/09/29 10:33:58;;;;;;;32.50;11.73;;;12.90;99.90;;;;;;4990987;28;20177;-67
2022/09/29 10:36:27;;;;;;;22.50;8.90;;;13.10;99.90;;;;;;4984660;28;20473;-67
2022/09/29 10:38:55;;;;;;;25.87;8.90;;;13.20;1.00;;;;;;4992048;28;20425;-67
2022/09/29 10:41:21;;;;;;;23.23;7.20;;;13.20;1.00;;;;;;4992045;28;20909;-68
2022/09/29 10:43:48;;;;;;;24.10;7.30;;;13.20;1.00;;;;;;4991806;28;20420;-67
2022/09/29 10:46:51;;;;;;;12.87;6.33;;;13.00;1.00;;;;;;4991869;28;20471;-67
2022/09/29 10:49:19;;;;;;;13.47;6.50;;;13.00;1.00;;;;;;4991825;28;20416;-68
2022/09/29 10:52:14;;;;;;;11.40;6.20;;;12.70;1.00;;;;;;4991709;28;20785;-66
2022/09/29 10:54:54;;;;;;;11.00;6.10;;;12.90;1.00;;;;;;4992545;28;20411;-67
2022/09/29 10:57:25;;;;;;;6.00;5.40;;;13.20;99.90;;;;;;4982952;28;20459;-66
2022/09/29 10:59:53;;;;;;;5.73;5.10;;;13.20;99.90;;;;;;4991794;28;20400;-67
2022/09/29 11:02:45;;;;;;;7.03;6.33;;;13.40;99.90;;;;;;4991505;28;20412;-68
2022/09/29 11:05:18;;;;;;;6.50;5.70;;;13.50;99.90;;;;;;4990520;28;20468;-66
2022/09/29 11:07:47;;;;;;;23.70;7.73;;;13.60;99.90;;;;;;4990611;28;20866;-66
2022/09/29 11:10:29;;;;;;;18.33;7.67;;;13.30;99.90;;;;;;4992096;28;20408;-66
2022/09/29 11:12:57;;;;;;;10.30;5.10;;;13.30;99.90;;;;;;4987670;28;20853;-65
2022/09/29 11:15:28;;;;;;;5.87;4.33;;;13.20;99.90;;;;;;4990204;28;20463;-65
2022/09/29 11:17:54;;;;;;;5.50;5.00;;;13.10;99.90;;;;;;4989378;28;21000;-64
2022/09/29 11:20:24;;;;;;;8.23;5.13;;;13.10;99.90;;;;;;4990658;28;20424;-65
2022/09/29 11:23:31;;;;;;;5.23;4.70;;;13.10;99.90;;;;;;4990139;28;20431;-65
2022/09/29 11:26:04;;;;;;;11.93;5.00;;;13.00;87.20;;;;;;4969250;28;20515;-65
2022/09/29 11:28:33;;;;;;;19.43;6.97;;;13.10;70.80;;;;;;4989829;28;20447;-65
2022/09/29 11:31:29;;;;;;;5.33;3.80;;;13.30;71.60;;;;;;4989670;28;20401;-65
2022/09/29 11:34:15;;;;;;;4.50;3.67;;;13.40;1.00;;;;;;4990377;28;20419;-65
2022/09/29 11:36:50;;;;;;;5.60;4.30;;;13.30;1.00;;;;;;4989709;28;20491;-66
2022/09/29 11:39:44;;;;;;;13.37;4.90;;;13.30;1.00;;;;;;4987564;28;20857;-66
2022/09/29 11:42:21;;;;;;;4.50;3.67;;;13.30;1.00;;;;;;4989797;28;20413;-65
2022/09/29 11:45:09;;;;;;;10.70;4.83;;;13.30;1.00;;;;;;4990430;28;20434;-65
2022/09/29 11:47:39;;;;;;;5.40;4.13;;;13.40;1.00;;;;;;4983361;28;20439;-66
2022/09/29 11:50:20;;;;;;;11.83;5.77;;;13.40;1.00;;;;;;4990185;28;20462;-65
2022/09/29 11:53:11;;;;;;;7.50;4.20;;;13.70;1.00;;;;;;4989938;28;20812;-65
2022/09/29 11:55:44;;;;;;;5.57;4.23;;;14.00;1.00;;;;;;4988588;28;20454;-65
2022/09/29 11:59:03;;;;;;;5.60;4.10;;;14.00;1.00;;;;;;4988231;28;20945;-66
2022/09/29 12:02:10;;;;;;;4.80;3.90;;;13.70;1.00;;;;;;4948254;29;20943;-66
2022/09/29 12:04:58;;;;;;;15.17;5.00;;;13.60;1.00;;;;;;4950075;28;20425;-66
2022/09/29 12:07:43;;;;;;;13.97;5.17;;;13.80;1.00;;;;;;4989970;28;20456;-68
2022/09/29 12:10:42;;;;;;;10.97;3.80;;;13.60;1.00;;;;;;4986309;28;20908;-66
2022/09/29 12:13:22;;;;;;;26.30;6.40;;;13.60;1.00;;;;;;4987167;28;20428;-65
2022/09/29 12:16:02;;;;;;;20.87;5.60;;;13.80;1.00;;;;;;4989323;28;20551;-66
2022/09/29 12:19:00;;;;;;;5.67;4.87;;;13.90;1.00;;;;;;4983465;28;20812;-66
2022/09/29 12:21:30;;;;;;;8.93;5.17;;;13.60;1.00;;;;;;4983079;28;20436;-68
2022/09/29 12:23:57;;;;;;;5.93;4.30;;;13.70;1.00;;;;;;4987942;28;20527;-66
2022/09/29 12:26:24;;;;;;;6.27;5.77;;;13.80;1.00;;;;;;4983559;28;20456;-65
2022/09/29 12:29:07;;;;;;;6.17;5.13;;;13.70;1.00;;;;;;4989165;28;20415;-66
2022/09/29 12:31:48;;;;;;;6.10;5.43;;;13.60;1.00;;;;;;4969585;28;20400;-66
2022/09/29 12:34:45;;;;;;;23.77;7.40;;;13.50;1.00;;;;;;4969858;28;20413;-66
2022/09/29 12:37:16;;;;;;;5.87;5.40;;;13.70;1.00;;;;;;4983501;28;20417;-66
2022/09/29 12:40:09;;;;;;;12.80;5.70;;;13.70;1.00;;;;;;4970900;28;20460;-66
2022/09/29 12:42:44;;;;;;;7.27;5.50;;;13.60;1.00;;;;;;4994257;28;20509;-66
2022/09/29 12:45:39;;;;;;;6.53;4.80;;;13.40;1.00;;;;;;5005821;28;20435;-65
2022/09/29 12:48:11;;;;;;;5.30;4.67;;;13.50;1.00;;;;;;5002274;28;20496;-66
2022/09/29 12:51:00;;;;;;;16.37;6.60;;;13.40;1.00;;;;;;5008771;28;20410;-66
2022/09/29 12:53:57;;;;;;;8.97;5.73;;;13.50;1.00;;;;;;4986775;28;20936;-65
2022/09/29 12:56:32;;;;;;;6.97;5.67;;;13.50;1.00;;;;;;4988123;28;20450;-66
2022/09/29 12:59:18;;;;;;;5.63;5.10;;;13.30;1.00;;;;;;4989262;28;20493;-66
2022/09/29 13:01:46;;;;;;;6.73;4.37;;;13.20;1.00;;;;;;4989193;28;20404;-65
2022/09/29 13:04:39;;;;;;;5.60;4.20;;;13.10;1.00;;;;;;4986899;28;20942;-65
2022/09/29 13:07:42;;;;;;;7.50;4.33;;;13.00;63.70;;;;;;4989049;28;20518;-66
2022/09/29 13:10:28;;;;;;;5.27;4.77;;;12.70;1.00;;;;;;4989584;28;20404;-65
2022/09/29 13:13:02;;;;;;;12.70;4.50;;;12.60;99.90;;;;;;4987666;28;20404;-66
2022/09/29 13:16:00;;;;;;;11.40;5.07;;;12.70;1.00;;;;;;4986910;28;20428;-66
2022/09/29 13:19:06;;;;;;;15.53;5.63;;;12.80;1.00;;;;;;4985481;28;20458;-68
2022/09/29 13:21:58;;;;;;;6.10;3.80;;;13.10;1.00;;;;;;4985609;28;20440;-67